Modern Express — H9DG — position and weather

sailwx.info

Track history (hours):
 
Tides and Currents Weather Stations Pressure Air Temp Water Temp Dewpoint Dewpoint Depression Visibility Wind Speed Wind Dir Waves Ship Positions

Modern Express

Last reported at 2015-May-02 22:20 UTC. Time now 2015-May-04 09:01 UTC.
Position N 39°41' W 009°51'.

Length 164 m; beam 28 m.

Type: Cargo ship. MMSI: 356187000.

Date/timePositionNaut miles runAvg speedWind from/ knotsBaromVisibWave heightAir tempDewpointWater temp
2015-May-02 22:20N 39°41' W 009°51'2916.1
2015-May-02 20:33N 39°12' W 009°51'1615.9
2015-May-02 19:33N 38°56' W 009°51'1615.9
2015-May-02 18:33N 38°40' W 009°51'1616.1
2015-May-02 17:33N 38°24' W 009°52'1616.3
2015-May-02 16:33N 38°08' W 009°54'1817.2
2015-May-02 15:31N 37°50' W 009°56'1616.2
2015-May-02 14:33N 37°35' W 009°58'1616.1
2015-May-02 13:33N 37°19' W 010°00'1616.0
2015-May-02 12:33N 37°03' W 010°03'1615.8
2015-May-02 11:33N 36°47' W 010°05'1616.1
2015-May-02 10:33N 36°31' W 010°08'1616.0
2015-May-02 09:33N 36°16' W 010°14'1616.0
2015-May-02 08:33N 36°01' W 010°20'1615.7
2015-May-02 07:33N 35°46' W 010°26'1615.7
2015-May-02 06:33N 35°31' W 010°32'1515.4
2015-May-02 05:33N 35°16' W 010°38'1615.9
2015-May-02 04:33N 35°01' W 010°44'1615.9
2015-May-02 03:33N 34°46' W 010°49'1616.0
2015-May-02 02:33N 34°31' W 010°56'1616.2
2015-May-02 01:33N 34°16' W 011°03'1716.5
2015-May-02 00:33N 34°00' W 011°10'1616.3
2015-May-01 23:33N 33°45' W 011°17'1616.0
2015-May-01 22:33N 33°30' W 011°23'1615.6
2015-May-01 21:33N 33°15' W 011°29'1715.6
2015-May-01 20:28N 32°59' W 011°35'1515.6
2015-May-01 19:31N 32°45' W 011°41'1815.3
2015-May-01 18:20N 32°28' W 011°48'66415.1
2015-Apr-29 22:20N 22°30' W 017°16'4716.2
2015-Apr-29 19:26N 21°46' W 017°33'1516.5
2015-Apr-29 18:33N 21°33' W 017°39'  
Track history (hours):
 
Tides and Currents Weather Stations Pressure Air Temp Water Temp Dewpoint Dewpoint Depression Visibility Wind Speed Wind Dir Waves Ship Positions

Modern Express

Last reported at 2015-May-02 22:20 UTC. Time now 2015-May-04 09:01 UTC.
Position N 39°41' W 009°51'.

Length 164 m; beam 28 m.

Type: Cargo ship. MMSI: 356187000.

Date/timePositionNaut miles runAvg speedWind from/ knotsBaromVisibWave heightAir tempDewpointWater temp
2015-May-02 22:20N 39°41' W 009°51'2916.1
2015-May-02 20:33N 39°12' W 009°51'1615.9
2015-May-02 19:33N 38°56' W 009°51'1615.9
2015-May-02 18:33N 38°40' W 009°51'1616.1
2015-May-02 17:33N 38°24' W 009°52'1616.3
2015-May-02 16:33N 38°08' W 009°54'1817.2
2015-May-02 15:31N 37°50' W 009°56'1616.2
2015-May-02 14:33N 37°35' W 009°58'1616.1
2015-May-02 13:33N 37°19' W 010°00'1616.0
2015-May-02 12:33N 37°03' W 010°03'1615.8
2015-May-02 11:33N 36°47' W 010°05'1616.1
2015-May-02 10:33N 36°31' W 010°08'1616.0
2015-May-02 09:33N 36°16' W 010°14'1616.0
2015-May-02 08:33N 36°01' W 010°20'1615.7
2015-May-02 07:33N 35°46' W 010°26'1615.7
2015-May-02 06:33N 35°31' W 010°32'1515.4
2015-May-02 05:33N 35°16' W 010°38'1615.9
2015-May-02 04:33N 35°01' W 010°44'1615.9
2015-May-02 03:33N 34°46' W 010°49'1616.0
2015-May-02 02:33N 34°31' W 010°56'1616.2
2015-May-02 01:33N 34°16' W 011°03'1716.5
2015-May-02 00:33N 34°00' W 011°10'1616.3
2015-May-01 23:33N 33°45' W 011°17'1616.0
2015-May-01 22:33N 33°30' W 011°23'1615.6
2015-May-01 21:33N 33°15' W 011°29'1715.6
2015-May-01 20:28N 32°59' W 011°35'1515.6
2015-May-01 19:31N 32°45' W 011°41'1815.3
2015-May-01 18:20N 32°28' W 011°48'66415.1
2015-Apr-29 22:20N 22°30' W 017°16'4716.2
2015-Apr-29 19:26N 21°46' W 017°33'1516.5
2015-Apr-29 18:33N 21°33' W 017°39'  

Dump ship's entire track history